Time;durP1;ratioP1;P1;durP2;ratioP2;P2;SDS_P1;SDS_P2;PMS_P1;PMS_P2;Temp;Humidity;BMP_temperature;BMP_pressure;BME280_temperature;BME280_humidity;BME280_pressure;Samples;Min_cycle;Max_cycle;Signal;HPM_P1;HPM_P2
2022/12/21 00:01:36;;;;;;;36.72;20.65;;;8.40;99.90;;;;;;5050934;28;20490;-69
2022/12/21 00:04:03;;;;;;;103.38;23.88;;;8.30;99.90;;;;;;5068840;28;20047;-68
2022/12/21 00:06:32;;;;;;;37.72;21.02;;;8.30;99.90;;;;;;5062374;28;20131;-69
2022/12/21 00:08:59;;;;;;;84.88;21.20;;;8.30;99.90;;;;;;5047452;28;20052;-69
2022/12/21 00:11:27;;;;;;;37.72;18.52;;;8.30;99.90;;;;;;5049646;28;20048;-69
2022/12/21 00:13:56;;;;;;;59.97;19.27;;;8.30;99.90;;;;;;5067233;28;20050;-69
2022/12/21 00:16:24;;;;;;;70.53;19.30;;;8.20;99.90;;;;;;5048636;28;20856;-68
2022/12/21 00:18:50;;;;;;;35.75;18.08;;;8.20;99.90;;;;;;5067645;28;20046;-69
2022/12/21 00:21:24;;;;;;;123.55;18.65;;;8.20;99.90;;;;;;5066175;28;21008;-69
2022/12/21 00:23:52;;;;;;;68.55;18.38;;;8.20;99.90;;;;;;5072580;28;20047;-69
2022/12/21 00:26:20;;;;;;;54.40;18.05;;;8.10;99.90;;;;;;5068515;28;20431;-68
2022/12/21 00:28:49;;;;;;;121.95;19.67;;;8.10;99.90;;;;;;5070407;28;20050;-69
2022/12/21 00:31:17;;;;;;;57.15;17.25;;;8.10;99.90;;;;;;5069362;28;20036;-69
2022/12/21 00:33:44;;;;;;;83.43;17.25;;;8.00;99.90;;;;;;5052704;28;20412;-68
2022/12/21 00:36:12;;;;;;;97.75;16.52;;;8.00;99.90;;;;;;5066806;28;20129;-69
2022/12/21 00:38:38;;;;;;;91.10;18.08;;;8.00;99.90;;;;;;5069874;28;20040;-68
2022/12/21 00:41:08;;;;;;;30.05;16.25;;;7.90;99.90;;;;;;5061626;28;20051;-69
2022/12/21 00:43:36;;;;;;;28.17;17.65;;;7.90;99.90;;;;;;5069946;28;20615;-69
2022/12/21 00:46:02;;;;;;;46.72;18.17;;;7.90;99.90;;;;;;5064668;28;20049;-70
2022/12/21 00:48:29;;;;;;;26.67;16.95;;;7.80;99.90;;;;;;5046781;28;20117;-69
2022/12/21 00:51:08;;;;;;;35.28;17.35;;;7.80;99.90;;;;;;5063086;28;20097;-70
2022/12/21 00:53:34;;;;;;;31.40;16.73;;;7.80;99.90;;;;;;5072707;28;20032;-70
2022/12/21 00:56:02;;;;;;;32.08;16.40;;;7.80;99.90;;;;;;5051237;28;20048;-69
2022/12/21 00:58:29;;;;;;;27.25;15.75;;;7.80;99.90;;;;;;5066196;28;20043;-70
2022/12/21 01:00:57;;;;;;;23.48;14.98;;;8.00;99.90;;;;;;5071638;28;20051;-69
2022/12/21 01:03:23;;;;;;;41.35;16.27;;;7.80;99.90;;;;;;5063385;28;20489;-70
2022/12/21 01:05:51;;;;;;;32.20;15.45;;;7.70;99.90;;;;;;5066928;28;20044;-70
2022/12/21 01:08:18;;;;;;;25.73;13.88;;;7.70;99.90;;;;;;5067644;28;20040;-69
2022/12/21 01:10:44;;;;;;;28.67;15.13;;;7.70;99.90;;;;;;5070021;28;20401;-69
2022/12/21 01:13:11;;;;;;;28.98;14.23;;;8.00;99.90;;;;;;5088779;28;20052;-69
2022/12/21 01:15:43;;;;;;;24.65;14.70;;;7.60;99.90;;;;;;5086212;27;20079;-69
2022/12/21 01:18:11;;;;;;;25.30;14.75;;;7.80;99.90;;;;;;5056231;28;20047;-70
2022/12/21 01:20:47;;;;;;;26.58;13.98;;;7.50;99.90;;;;;;5053602;28;20047;-69
2022/12/21 01:23:13;;;;;;;23.83;13.75;;;7.50;99.90;;;;;;5054346;28;20417;-69
2022/12/21 01:25:42;;;;;;;26.80;14.52;;;7.50;99.90;;;;;;5072914;28;20036;-69
2022/12/21 01:28:08;;;;;;;26.13;13.38;;;7.50;99.90;;;;;;5057174;28;20455;-69
2022/12/21 01:30:34;;;;;;;25.67;14.35;;;7.50;99.90;;;;;;5073427;28;20055;-70
2022/12/21 01:32:59;;;;;;;29.10;14.63;;;7.50;99.90;;;;;;5088369;28;20050;-69
2022/12/21 01:35:25;;;;;;;34.83;13.32;;;7.90;99.90;;;;;;5074755;28;20469;-69
2022/12/21 01:37:51;;;;;;;29.60;13.82;;;7.40;99.90;;;;;;5055912;28;20062;-70
2022/12/21 01:40:17;;;;;;;27.80;14.00;;;7.60;99.90;;;;;;5073957;28;20042;-69
2022/12/21 01:42:42;;;;;;;54.00;14.63;;;7.40;99.90;;;;;;5092815;28;20043;-70
2022/12/21 01:45:20;;;;;;;56.17;14.15;;;7.40;99.90;;;;;;5096215;28;20043;-70
2022/12/21 01:47:54;;;;;;;23.35;14.07;;;7.30;99.90;;;;;;5073638;28;20070;-70
2022/12/21 01:51:01;;;;;;;41.20;13.60;;;7.30;99.90;;;;;;5072536;28;20042;-70
2022/12/21 01:53:47;;;;;;;42.13;13.15;;;7.20;99.90;;;;;;4984895;28;20120;-70
2022/12/21 01:56:16;;;;;;;25.83;12.73;;;7.20;99.90;;;;;;4982625;28;20585;-70
2022/12/21 01:58:42;;;;;;;32.53;13.65;;;7.20;99.90;;;;;;5060054;28;20052;-70
2022/12/21 02:01:08;;;;;;;82.53;13.07;;;7.50;99.90;;;;;;5082476;28;20107;-70
2022/12/21 02:03:39;;;;;;;40.25;13.35;;;7.20;99.90;;;;;;5075607;28;20045;-69
2022/12/21 02:06:10;;;;;;;24.70;12.95;;;7.40;99.90;;;;;;5074499;28;20032;-70
2022/12/21 02:08:36;;;;;;;;;;;7.10;99.90;;;;;;5094244;28;20124;-70
2022/12/21 02:11:03;;;;;;;23.42;11.93;;;7.10;99.90;;;;;;5077767;28;19923;-70
2022/12/21 02:13:29;;;;;;;21.55;12.43;;;7.10;99.90;;;;;;5075793;28;20077;-70
2022/12/21 02:16:01;;;;;;;26.23;12.85;;;7.10;99.90;;;;;;5059561;28;20139;-70
2022/12/21 02:18:39;;;;;;;63.55;12.43;;;7.10;99.90;;;;;;5097326;28;20048;-69
2022/12/21 02:21:24;;;;;;;22.33;11.32;;;7.10;99.90;;;;;;5093597;28;20126;-70
2022/12/21 02:23:59;;;;;;;89.00;12.98;;;7.10;99.90;;;;;;5073801;28;20044;-70
2022/12/21 02:26:41;;;;;;;27.77;11.88;;;7.50;99.90;;;;;;5068599;28;20620;-70
2022/12/21 02:29:44;;;;;;;60.58;11.60;;;7.00;99.90;;;;;;5072994;28;20687;-69
2022/12/21 02:32:28;;;;;;;40.67;11.82;;;7.00;99.90;;;;;;5071942;28;20085;-70
2022/12/21 02:35:08;;;;;;;20.52;11.10;;;7.00;99.90;;;;;;5092101;28;20040;-69
2022/12/21 02:37:36;;;;;;;23.17;11.23;;;6.90;99.90;;;;;;5073518;28;20460;-70
2022/12/21 02:40:14;;;;;;;59.95;11.95;;;6.90;99.90;;;;;;5091063;28;20847;-69
2022/12/21 02:45:50;;;;;;;121.18;12.35;;;6.90;99.90;;;;;;5093370;28;20047;-69
2022/12/21 02:48:23;;;;;;;25.27;10.73;;;6.60;99.90;;;;;;5086488;28;20040;-70
2022/12/21 02:50:56;;;;;;;50.30;10.82;;;6.90;99.90;;;;;;5072054;28;20574;-69
2022/12/21 02:53:29;;;;;;;46.60;9.80;;;6.80;99.90;;;;;;5093133;28;20392;-70
2022/12/21 02:55:55;;;;;;;49.40;10.10;;;6.80;99.90;;;;;;5084360;28;20567;-70
2022/12/21 02:58:23;;;;;;;68.05;10.10;;;6.80;99.90;;;;;;5097983;27;20063;-69
2022/12/21 03:00:55;;;;;;;44.15;9.65;;;6.80;99.90;;;;;;5100757;27;20044;-70
2022/12/21 03:03:50;;;;;;;82.45;9.60;;;6.70;99.90;;;;;;5090771;28;20051;-70
2022/12/21 03:06:16;;;;;;;41.10;9.18;;;6.70;99.90;;;;;;5076307;28;20139;-70
2022/12/21 03:08:47;;;;;;;64.95;10.27;;;6.70;99.90;;;;;;5091924;28;20177;-69
2022/12/21 03:11:14;;;;;;;123.28;10.40;;;6.70;99.90;;;;;;5067878;28;20040;-69
2022/12/21 03:13:45;;;;;;;67.38;9.82;;;6.60;99.90;;;;;;5088168;28;20055;-69
2022/12/21 03:16:11;;;;;;;84.90;9.23;;;6.60;99.90;;;;;;5087507;28;20086;-69
2022/12/21 03:19:13;;;;;;;62.78;9.55;;;6.60;99.90;;;;;;5074134;28;20035;-69
2022/12/21 03:22:06;;;;;;;89.07;9.90;;;6.50;99.90;;;;;;5052113;28;20060;-69
2022/12/21 03:24:57;;;;;;;20.65;8.52;;;6.50;99.90;;;;;;5092610;28;20039;-69
2022/12/21 03:27:30;;;;;;;16.60;8.30;;;6.40;99.90;;;;;;5088513;28;20035;-69
2022/12/21 03:30:02;;;;;;;30.48;8.57;;;6.50;99.90;;;;;;5096945;28;20050;-69
2022/12/21 03:32:52;;;;;;;27.85;8.82;;;6.50;99.90;;;;;;5085546;28;20067;-69
2022/12/21 03:35:26;;;;;;;94.63;9.27;;;6.40;99.90;;;;;;5067318;28;20536;-69
2022/12/21 03:37:55;;;;;;;19.48;8.75;;;6.30;99.90;;;;;;5090726;28;20040;-70
2022/12/21 03:40:28;;;;;;;28.17;8.70;;;6.30;99.90;;;;;;5070339;28;20047;-72
2022/12/21 03:43:06;;;;;;;50.83;9.88;;;6.30;99.90;;;;;;5090408;28;22259;-71
2022/12/21 03:45:42;;;;;;;16.50;9.23;;;6.30;99.90;;;;;;5094469;28;20052;-70
2022/12/21 03:48:18;;;;;;;29.27;9.60;;;6.20;99.90;;;;;;5071927;28;20048;-71
2022/12/21 03:50:46;;;;;;;22.38;10.07;;;6.30;99.90;;;;;;5091055;28;20043;-70
2022/12/21 03:53:39;;;;;;;53.85;10.05;;;6.20;99.90;;;;;;5081020;28;20139;-70
2022/12/21 03:56:07;;;;;;;18.77;10.20;;;6.20;99.90;;;;;;5071986;28;20047;-70
2022/12/21 03:58:35;;;;;;;17.67;10.23;;;6.20;99.90;;;;;;5088814;28;20040;-70
2022/12/21 04:01:20;;;;;;;46.13;12.23;;;6.20;99.90;;;;;;5095714;28;20155;-70
2022/12/21 04:03:52;;;;;;;70.65;11.95;;;6.20;99.90;;;;;;5089627;28;20051;-70
2022/12/21 04:06:25;;;;;;;40.95;11.25;;;6.30;99.90;;;;;;5095681;28;20040;-70
2022/12/21 04:08:51;;;;;;;49.33;11.57;;;6.20;99.90;;;;;;5077812;28;20047;-70
2022/12/21 04:14:01;;;;;;;29.67;10.60;;;6.20;99.90;;;;;;5094887;28;20051;-74
2022/12/21 04:16:28;;;;;;;59.33;10.65;;;6.30;99.90;;;;;;5073397;28;20043;-74
2022/12/21 04:21:38;;;;;;;33.58;9.88;;;6.20;99.90;;;;;;5093411;28;20079;-74
2022/12/21 04:29:32;;;;;;;29.33;9.75;;;6.70;99.90;;;;;;5075405;28;20126;-72
2022/12/21 04:31:57;;;;;;;25.25;9.57;;;6.20;99.90;;;;;;5087801;28;20044;-71
2022/12/21 04:34:23;;;;;;;46.63;11.25;;;6.10;99.90;;;;;;5095985;28;20082;-74
2022/12/21 04:39:33;;;;;;;27.85;9.15;;;6.10;99.90;;;;;;5088100;28;20121;-73
2022/12/21 04:41:59;;;;;;;31.75;9.50;;;6.60;99.90;;;;;;5098347;28;20485;-74
2022/12/21 04:44:25;;;;;;;33.53;9.75;;;6.10;99.90;;;;;;5061462;28;20047;-75
2022/12/21 04:46:51;;;;;;;43.13;10.02;;;6.10;99.90;;;;;;5078446;28;20758;-74
2022/12/21 04:49:17;;;;;;;90.32;11.52;;;6.10;99.90;;;;;;5098964;28;20125;-74
2022/12/21 04:51:42;;;;;;;31.83;11.02;;;6.10;99.90;;;;;;5075648;28;20043;-74
2022/12/21 04:54:08;;;;;;;67.18;10.88;;;6.50;99.90;;;;;;5054940;28;20126;-74
2022/12/21 04:56:34;;;;;;;89.43;11.15;;;6.10;99.90;;;;;;5075716;28;20032;-75
2022/12/21 04:58:59;;;;;;;54.85;10.75;;;6.10;99.90;;;;;;5062115;28;20097;-74
2022/12/21 05:01:25;;;;;;;27.10;11.57;;;6.10;99.90;;;;;;5082356;28;20031;-74
2022/12/21 05:03:51;;;;;;;29.77;10.77;;;6.10;99.90;;;;;;5073635;28;20032;-74
2022/12/21 05:06:18;;;;;;;49.28;10.63;;;6.00;99.90;;;;;;5094816;28;20044;-71
2022/12/21 05:08:44;;;;;;;27.52;10.52;;;6.00;99.90;;;;;;5098200;28;20044;-71
2022/12/21 05:11:19;;;;;;;35.65;10.13;;;6.10;99.90;;;;;;5076827;28;20051;-72
2022/12/21 05:13:46;;;;;;;19.98;10.52;;;6.10;99.90;;;;;;5081602;28;20043;-71
2022/12/21 05:16:15;;;;;;;74.47;11.65;;;6.10;99.90;;;;;;5074069;28;20453;-72
2022/12/21 05:18:41;;;;;;;33.92;10.25;;;6.10;99.90;;;;;;5099772;28;20047;-74
2022/12/21 05:21:07;;;;;;;57.95;11.75;;;6.10;99.90;;;;;;5102484;28;20180;-74
2022/12/21 05:23:33;;;;;;;62.03;11.52;;;6.10;99.90;;;;;;5075798;28;20032;-74
2022/12/21 05:26:04;;;;;;;41.33;11.35;;;6.10;99.90;;;;;;5071391;28;20135;-73
2022/12/21 05:28:30;;;;;;;30.05;11.18;;;6.10;99.90;;;;;;5088809;28;20086;-73
2022/12/21 05:30:56;;;;;;;40.63;10.70;;;6.00;99.90;;;;;;5082382;28;20035;-73
2022/12/21 05:33:22;;;;;;;32.90;10.52;;;6.00;99.90;;;;;;5095226;28;20039;-73
2022/12/21 05:35:48;;;;;;;56.10;11.27;;;6.00;99.90;;;;;;5091818;28;20283;-74
2022/12/21 05:38:15;;;;;;;118.13;12.57;;;6.00;99.90;;;;;;5091901;28;20078;-73
2022/12/21 05:40:46;;;;;;;27.52;11.85;;;6.10;99.90;;;;;;5080523;28;20606;-73
2022/12/21 05:43:12;;;;;;;22.92;11.13;;;6.00;99.90;;;;;;5055175;28;20133;-73
2022/12/21 05:45:38;;;;;;;35.17;11.35;;;6.40;99.90;;;;;;5061689;28;20147;-74
2022/12/21 05:48:04;;;;;;;23.50;10.93;;;6.50;99.90;;;;;;5078366;28;20768;-74
2022/12/21 05:50:29;;;;;;;29.30;11.48;;;6.00;99.90;;;;;;5057101;28;20031;-73
2022/12/21 05:52:55;;;;;;;27.70;10.65;;;6.10;99.90;;;;;;5081343;28;20074;-73
2022/12/21 05:55:21;;;;;;;60.10;11.63;;;6.10;99.90;;;;;;5082774;28;20040;-73
2022/12/21 05:57:46;;;;;;;48.75;11.10;;;6.10;99.90;;;;;;5055823;28;20508;-73
2022/12/21 06:00:13;;;;;;;28.85;10.77;;;6.00;99.90;;;;;;5053984;27;20044;-73
2022/12/21 06:02:39;;;;;;;104.50;12.15;;;6.00;99.90;;;;;;5075196;28;20040;-73
2022/12/21 06:05:05;;;;;;;75.70;11.77;;;6.00;99.90;;;;;;5074746;28;20044;-72
2022/12/21 06:07:30;;;;;;;70.55;11.32;;;6.00;99.90;;;;;;5067911;28;20720;-73
2022/12/21 06:09:56;;;;;;;63.78;11.65;;;6.00;99.90;;;;;;5068177;28;20044;-73
2022/12/21 06:12:22;;;;;;;60.05;12.40;;;6.00;99.90;;;;;;5062280;28;20154;-74
2022/12/21 06:14:48;;;;;;;68.82;11.32;;;6.00;99.90;;;;;;5082346;28;20100;-73
2022/12/21 06:17:13;;;;;;;32.35;10.35;;;5.90;99.90;;;;;;5083269;27;20105;-73
2022/12/21 06:19:39;;;;;;;27.70;10.90;;;5.90;99.90;;;;;;5067133;28;20043;-72
2022/12/21 06:22:05;;;;;;;35.53;10.70;;;5.90;99.90;;;;;;5069580;27;20771;-73
2022/12/21 06:24:31;;;;;;;49.03;12.93;;;5.90;99.90;;;;;;5073329;27;20413;-72
2022/12/21 06:26:56;;;;;;;50.20;12.55;;;5.90;99.90;;;;;;5060334;28;20051;-74
2022/12/21 06:29:22;;;;;;;41.22;11.40;;;5.90;99.90;;;;;;5083818;27;20054;-73
2022/12/21 06:31:48;;;;;;;38.80;11.57;;;5.90;99.90;;;;;;5085586;27;20047;-73
2022/12/21 06:34:14;;;;;;;34.35;12.48;;;5.90;99.90;;;;;;5087048;27;20047;-73
2022/12/21 06:36:39;;;;;;;42.90;12.40;;;5.80;99.90;;;;;;5057259;27;20043;-73
2022/12/21 06:39:05;;;;;;;34.58;12.40;;;5.80;99.90;;;;;;5075632;28;20047;-74
2022/12/21 06:41:31;;;;;;;54.28;13.32;;;5.80;99.90;;;;;;5051612;28;20047;-73
2022/12/21 06:43:57;;;;;;;66.70;13.25;;;5.80;99.90;;;;;;5049311;27;20031;-73
2022/12/21 06:46:23;;;;;;;29.58;13.00;;;5.80;99.90;;;;;;5095179;27;20736;-73
2022/12/21 06:48:48;;;;;;;56.78;13.00;;;5.80;99.90;;;;;;5071072;28;20043;-74
2022/12/21 06:51:17;;;;;;;36.03;13.70;;;5.80;99.90;;;;;;5072961;28;20085;-74
2022/12/21 06:53:45;;;;;;;46.58;14.70;;;5.50;99.90;;;;;;5069456;28;20041;-73
2022/12/21 06:56:30;;;;;;;57.95;14.68;;;5.90;99.90;;;;;;5061585;28;20051;-74
2022/12/21 06:58:56;;;;;;;77.82;15.20;;;5.80;99.90;;;;;;5070933;28;20484;-74
2022/12/21 07:01:31;;;;;;;62.72;14.23;;;6.10;99.90;;;;;;5070707;28;20050;-74
2022/12/21 07:03:57;;;;;;;37.03;15.38;;;5.90;99.90;;;;;;5069921;28;20039;-74
2022/12/21 07:06:25;;;;;;;40.95;14.80;;;5.90;99.90;;;;;;5083918;28;20043;-74
2022/12/21 07:08:51;;;;;;;36.72;14.07;;;5.90;99.90;;;;;;5051335;28;20464;-73
2022/12/21 07:11:20;;;;;;;70.88;14.98;;;5.80;99.90;;;;;;5076056;27;20100;-73
2022/12/21 07:13:46;;;;;;;50.78;14.63;;;5.90;99.90;;;;;;5071249;27;20581;-74
2022/12/21 07:16:14;;;;;;;44.13;15.27;;;5.90;99.90;;;;;;5092713;27;20472;-73
2022/12/21 07:18:40;;;;;;;106.80;15.55;;;5.90;99.90;;;;;;5053549;28;20153;-73
2022/12/21 07:21:10;;;;;;;72.32;16.02;;;5.90;99.90;;;;;;5056449;28;20040;-73
2022/12/21 07:23:38;;;;;;;121.18;18.35;;;6.10;99.90;;;;;;5069953;27;20051;-73
2022/12/21 07:26:08;;;;;;;45.95;16.17;;;5.90;99.90;;;;;;5091514;27;20191;-73
2022/12/21 07:28:35;;;;;;;100.72;17.38;;;5.90;99.90;;;;;;5066077;28;20134;-73
2022/12/21 07:31:08;;;;;;;61.05;16.85;;;5.90;99.90;;;;;;5087269;27;20043;-73
2022/12/21 07:33:35;;;;;;;48.25;16.65;;;5.90;99.90;;;;;;5067874;28;20092;-73
2022/12/21 07:36:02;;;;;;;93.70;17.10;;;5.90;99.90;;;;;;5050262;28;20047;-73
2022/12/21 07:38:29;;;;;;;76.57;18.17;;;5.90;99.90;;;;;;5090691;27;20443;-73
2022/12/21 07:40:59;;;;;;;55.28;16.70;;;5.90;99.90;;;;;;5072317;27;20092;-73
2022/12/21 07:43:25;;;;;;;89.53;18.02;;;5.90;99.90;;;;;;5071035;28;20411;-73
2022/12/21 07:45:52;;;;;;;71.57;16.45;;;5.90;99.90;;;;;;5052723;28;20488;-74
2022/12/21 07:48:18;;;;;;;50.35;16.63;;;5.90;99.90;;;;;;5069475;28;20062;-73
2022/12/21 07:50:47;;;;;;;49.05;16.88;;;6.00;99.90;;;;;;5076308;28;20610;-73
2022/12/21 07:53:13;;;;;;;56.40;17.48;;;5.90;99.90;;;;;;5090827;28;20039;-73
2022/12/21 07:55:39;;;;;;;40.47;16.80;;;5.90;99.90;;;;;;5075461;28;20088;-73
2022/12/21 07:58:05;;;;;;;81.10;18.08;;;5.90;99.90;;;;;;5091858;28;20039;-72
2022/12/21 08:00:31;;;;;;;83.63;18.92;;;5.90;99.90;;;;;;5072496;28;20652;-73
2022/12/21 08:02:56;;;;;;;59.90;17.38;;;5.90;99.90;;;;;;5070381;28;20403;-74
2022/12/21 08:05:22;;;;;;;59.92;16.60;;;5.80;99.90;;;;;;5067344;28;20043;-74
2022/12/21 08:07:49;;;;;;;56.10;17.85;;;5.80;99.90;;;;;;5078391;28;20043;-73
2022/12/21 08:10:15;;;;;;;52.00;16.92;;;5.90;99.90;;;;;;5069308;28;20043;-73
2022/12/21 08:12:41;;;;;;;47.03;17.27;;;5.90;99.90;;;;;;5066849;28;20047;-73
2022/12/21 08:15:08;;;;;;;94.25;18.83;;;5.90;99.90;;;;;;5087911;27;20046;-73
2022/12/21 08:17:33;;;;;;;57.28;18.20;;;5.90;99.90;;;;;;5068430;28;20184;-74
2022/12/21 08:19:59;;;;;;;44.80;18.55;;;5.80;99.90;;;;;;5068214;28;20185;-72
2022/12/21 08:22:25;;;;;;;56.20;18.60;;;6.00;99.90;;;;;;5089058;28;20047;-75
2022/12/21 08:24:50;;;;;;;51.47;17.77;;;5.90;99.90;;;;;;5075172;28;20059;-74
2022/12/21 08:27:17;;;;;;;57.13;19.52;;;5.90;99.90;;;;;;5089337;28;20351;-74
2022/12/21 08:29:43;;;;;;;43.20;17.88;;;5.90;99.90;;;;;;5072413;28;20040;-74
2022/12/21 08:32:09;;;;;;;50.55;18.27;;;5.90;99.90;;;;;;5059628;28;20678;-73
2022/12/21 08:34:34;;;;;;;43.13;18.50;;;6.20;99.90;;;;;;5076968;28;20055;-74
2022/12/21 08:37:00;;;;;;;39.00;18.15;;;5.90;99.90;;;;;;5092480;28;20161;-74
2022/12/21 08:39:27;;;;;;;48.22;17.77;;;5.90;99.90;;;;;;5076448;28;20161;-74
2022/12/21 08:41:53;;;;;;;49.33;18.13;;;5.90;99.90;;;;;;5075022;28;20571;-74
2022/12/21 08:44:19;;;;;;;46.75;18.27;;;5.90;99.90;;;;;;5050718;28;20032;-73
2022/12/21 08:46:45;;;;;;;41.85;17.77;;;5.90;99.90;;;;;;5078272;28;20067;-73
2022/12/21 08:49:11;;;;;;;76.03;19.50;;;5.90;99.90;;;;;;5092395;28;20054;-74
2022/12/21 08:51:39;;;;;;;46.30;17.88;;;6.00;99.90;;;;;;5080839;28;20105;-74
2022/12/21 08:54:06;;;;;;;50.60;18.35;;;6.00;99.90;;;;;;5090393;27;20080;-74
2022/12/21 08:56:33;;;;;;;47.17;19.13;;;6.00;99.90;;;;;;5077859;28;20055;-74
2022/12/21 08:59:04;;;;;;;47.05;18.90;;;6.00;99.90;;;;;;5100591;27;20060;-73
2022/12/21 09:01:30;;;;;;;57.72;19.52;;;6.00;99.90;;;;;;5075947;28;20155;-73
2022/12/21 09:03:56;;;;;;;41.72;20.13;;;6.20;99.90;;;;;;5075419;28;20098;-74
2022/12/21 09:06:22;;;;;;;70.88;20.42;;;6.10;99.90;;;;;;5057988;28;21548;-73
2022/12/21 09:08:48;;;;;;;59.08;20.33;;;6.10;99.90;;;;;;5055523;28;20054;-72
2022/12/21 09:11:16;;;;;;;61.28;20.63;;;6.10;99.90;;;;;;5090843;28;20781;-73
2022/12/21 09:13:41;;;;;;;63.78;20.77;;;6.20;99.90;;;;;;5073789;28;20051;-73
2022/12/21 09:16:13;;;;;;;54.40;22.05;;;6.10;99.90;;;;;;5077809;28;20050;-73
2022/12/21 09:18:39;;;;;;;;;;;6.40;99.90;;;;;;5093146;28;20067;-73
2022/12/21 09:21:05;;;;;;;54.97;19.60;;;6.20;99.90;;;;;;5094613;28;20028;-73
2022/12/21 09:23:30;;;;;;;54.45;20.30;;;6.30;99.90;;;;;;5077996;28;20055;-73
2022/12/21 09:25:56;;;;;;;60.10;21.17;;;6.30;99.90;;;;;;5094552;28;20184;-73
2022/12/21 09:28:22;;;;;;;46.45;19.73;;;6.30;99.90;;;;;;5053131;28;20104;-73
2022/12/21 09:30:48;;;;;;;49.25;20.60;;;6.30;99.90;;;;;;5060636;28;20083;-73
2022/12/21 09:33:13;;;;;;;65.93;20.55;;;6.60;99.90;;;;;;5071390;28;20127;-73
2022/12/21 09:35:39;;;;;;;50.63;19.17;;;6.30;99.90;;;;;;5094474;28;20043;-72
2022/12/21 09:38:05;;;;;;;54.50;21.50;;;6.30;99.90;;;;;;5076350;28;20043;-74
2022/12/21 09:40:33;;;;;;;48.60;20.30;;;6.40;99.90;;;;;;5070936;28;20161;-73
2022/12/21 09:43:27;;;;;;;57.70;21.77;;;6.20;99.90;;;;;;5057865;28;20500;-74
2022/12/21 09:46:06;;;;;;;53.55;21.13;;;6.40;99.90;;;;;;5090803;28;20063;-74
2022/12/21 09:48:50;;;;;;;56.13;22.15;;;6.40;99.90;;;;;;5093085;28;20471;-73
2022/12/21 09:51:27;;;;;;;51.45;20.60;;;6.40;99.90;;;;;;5076384;28;20043;-73
2022/12/21 09:54:12;;;;;;;68.70;22.52;;;6.40;99.90;;;;;;5093079;27;20131;-74
2022/12/21 09:56:48;;;;;;;56.70;21.15;;;6.40;99.90;;;;;;5064253;28;20048;-74
2022/12/21 09:59:17;;;;;;;58.63;21.65;;;6.40;99.90;;;;;;5071977;28;20114;-74
2022/12/21 10:01:48;;;;;;;65.63;22.83;;;6.50;99.90;;;;;;5094204;27;20086;-73
2022/12/21 10:04:31;;;;;;;58.90;22.05;;;6.50;99.90;;;;;;5065972;28;20039;-75
2022/12/21 10:07:19;;;;;;;63.72;22.50;;;6.50;99.90;;;;;;5067876;28;20075;-74
2022/12/21 10:10:11;;;;;;;64.50;23.45;;;6.50;99.90;;;;;;5070854;28;20130;-74
2022/12/21 10:12:36;;;;;;;;;;;6.50;99.90;;;;;;5049956;28;20056;-74
2022/12/21 10:15:02;;;;;;;68.40;23.85;;;6.50;99.90;;;;;;5051141;28;20005;-73
2022/12/21 10:17:45;;;;;;;64.38;24.48;;;6.60;99.90;;;;;;5055153;28;20040;-74
2022/12/21 10:20:26;;;;;;;66.57;24.52;;;6.60;99.90;;;;;;5035577;28;20590;-74
2022/12/21 10:22:57;;;;;;;64.22;25.70;;;6.60;99.90;;;;;;5072482;28;20037;-74
2022/12/21 10:25:27;;;;;;;62.15;24.88;;;6.60;99.90;;;;;;5073031;28;20050;-74
2022/12/21 10:28:28;;;;;;;68.25;23.90;;;6.60;99.90;;;;;;5052020;28;20047;-75
2022/12/21 10:31:09;;;;;;;66.38;24.35;;;6.60;99.90;;;;;;5054963;28;20044;-73
2022/12/21 10:33:39;;;;;;;63.38;24.05;;;6.60;99.90;;;;;;5070152;28;20052;-73
2022/12/21 10:36:05;;;;;;;65.60;25.95;;;6.60;99.90;;;;;;5069857;28;20902;-73
2022/12/21 10:38:35;;;;;;;63.70;25.83;;;6.60;99.90;;;;;;5069142;28;20095;-74
2022/12/21 10:41:05;;;;;;;66.45;25.92;;;6.70;99.90;;;;;;5054000;28;20185;-73
2022/12/21 10:43:39;;;;;;;62.78;24.40;;;6.70;99.90;;;;;;5071902;28;20076;-74
2022/12/21 10:46:05;;;;;;;68.68;25.60;;;6.70;99.90;;;;;;5033544;28;20036;-73
2022/12/21 10:48:32;;;;;;;65.15;24.80;;;6.70;99.90;;;;;;5052183;28;20063;-73
2022/12/21 10:51:14;;;;;;;69.82;25.13;;;6.70;99.90;;;;;;5053881;28;20451;-72
2022/12/21 10:53:40;;;;;;;57.65;23.67;;;6.70;99.90;;;;;;5068191;28;20037;-74
2022/12/21 10:56:07;;;;;;;68.38;25.27;;;6.70;99.90;;;;;;5051080;28;20489;-73
2022/12/21 10:58:34;;;;;;;71.20;23.90;;;6.70;99.90;;;;;;5066119;28;20044;-74
2022/12/21 11:01:25;;;;;;;61.83;23.42;;;6.80;99.90;;;;;;5049393;28;20076;-73
2022/12/21 11:04:15;;;;;;;65.43;23.45;;;6.80;99.90;;;;;;5032144;28;20802;-73
2022/12/21 11:07:24;;;;;;;58.42;23.90;;;6.80;99.90;;;;;;5043156;28;20036;-73
2022/12/21 11:10:02;;;;;;;63.65;22.60;;;6.80;99.90;;;;;;5067274;28;20051;-73
2022/12/21 11:12:28;;;;;;;66.88;21.80;;;7.30;99.90;;;;;;5084287;28;20055;-72
2022/12/21 11:14:55;;;;;;;51.40;20.80;;;6.80;99.90;;;;;;5089109;28;20411;-73
2022/12/21 11:17:29;;;;;;;51.22;20.55;;;6.80;99.90;;;;;;5071184;28;20040;-72
2022/12/21 11:20:13;;;;;;;57.72;20.88;;;6.90;99.90;;;;;;5092480;28;20054;-72
2022/12/21 11:22:43;;;;;;;57.80;21.00;;;6.90;99.90;;;;;;5091239;28;20040;-73
2022/12/21 11:25:18;;;;;;;61.33;22.02;;;7.30;99.90;;;;;;5090650;28;20572;-74
2022/12/21 11:27:47;;;;;;;58.67;22.00;;;7.00;99.90;;;;;;5058870;28;20126;-74
2022/12/21 11:30:25;;;;;;;61.88;22.13;;;7.00;99.90;;;;;;5090156;28;20044;-73
2022/12/21 11:32:54;;;;;;;56.20;22.17;;;7.00;99.90;;;;;;5078784;28;20465;-72
2022/12/21 11:35:27;;;;;;;61.53;21.50;;;7.00;99.90;;;;;;5082592;28;20295;-73
2022/12/21 11:37:56;;;;;;;57.42;20.52;;;7.00;99.90;;;;;;5067413;28;20713;-73
2022/12/21 11:40:24;;;;;;;57.13;20.40;;;7.10;99.90;;;;;;5048816;28;20082;-73
2022/12/21 11:43:00;;;;;;;59.33;21.30;;;7.10;99.90;;;;;;5070347;28;20047;-73
2022/12/21 11:45:41;;;;;;;60.83;20.67;;;7.10;99.90;;;;;;5070165;28;20044;-72
2022/12/21 11:48:48;;;;;;;55.90;20.00;;;7.20;99.90;;;;;;5069971;28;20136;-73
2022/12/21 11:51:18;;;;;;;58.03;19.15;;;7.20;99.90;;;;;;5052789;28;20044;-74
2022/12/21 11:53:46;;;;;;;52.05;18.13;;;7.20;99.90;;;;;;5090957;28;20039;-73
2022/12/21 11:56:21;;;;;;;53.25;18.08;;;7.20;99.90;;;;;;5071640;28;20036;-71
2022/12/21 11:58:58;;;;;;;48.00;18.90;;;7.20;99.90;;;;;;5092755;28;20051;-72
2022/12/21 12:01:27;;;;;;;57.10;18.42;;;7.20;99.90;;;;;;5085078;28;20039;-73
2022/12/21 12:04:03;;;;;;;44.28;18.35;;;7.20;99.90;;;;;;5089638;28;20074;-74
2022/12/21 12:07:00;;;;;;;55.15;17.65;;;7.20;99.90;;;;;;5056653;28;20047;-74
2022/12/21 12:10:10;;;;;;;59.50;18.38;;;7.30;99.90;;;;;;5056425;28;20122;-74
2022/12/21 12:13:01;;;;;;;52.58;17.15;;;7.30;99.90;;;;;;5016900;28;20059;-74
2022/12/21 12:15:58;;;;;;;59.28;18.33;;;7.40;99.90;;;;;;5073562;28;20149;-74
2022/12/21 12:19:13;;;;;;;45.58;15.63;;;7.40;99.90;;;;;;5024612;28;20614;-72
2022/12/21 12:22:28;;;;;;;55.67;16.10;;;7.50;99.90;;;;;;5010310;28;20033;-72
2022/12/21 12:25:22;;;;;;;50.03;16.25;;;7.50;99.90;;;;;;5006232;28;20052;-73
2022/12/21 12:28:13;;;;;;;44.63;15.52;;;7.50;99.90;;;;;;5069555;28;20042;-73
2022/12/21 12:30:47;;;;;;;43.33;15.60;;;7.50;99.90;;;;;;5069262;28;20048;-72
2022/12/21 12:33:32;;;;;;;47.83;15.07;;;7.50;99.90;;;;;;5067560;28;20040;-71
2022/12/21 12:36:13;;;;;;;46.65;15.93;;;7.60;99.90;;;;;;5091728;28;20071;-72
2022/12/21 12:39:17;;;;;;;41.20;15.40;;;7.60;99.90;;;;;;5061103;28;20500;-72
2022/12/21 12:41:56;;;;;;;44.15;14.82;;;7.60;99.90;;;;;;5070530;28;20044;-72
2022/12/21 12:44:27;;;;;;;41.97;15.05;;;7.60;99.90;;;;;;5084479;28;20043;-73
2022/12/21 12:46:59;;;;;;;;;;;7.70;99.90;;;;;;5048427;28;20876;-72
2022/12/21 12:49:52;;;;;;;45.05;16.08;;;7.70;99.90;;;;;;5066108;28;20392;-72
2022/12/21 12:52:31;;;;;;;43.65;14.75;;;7.70;99.90;;;;;;5061351;28;20032;-72
2022/12/21 12:55:45;;;;;;;41.92;15.35;;;7.70;99.90;;;;;;5089254;28;20150;-71
2022/12/21 12:59:06;;;;;;;43.88;16.80;;;7.80;99.90;;;;;;5055485;28;20043;-73
2022/12/21 13:01:53;;;;;;;47.60;18.57;;;7.80;99.90;;;;;;5051314;28;20066;-72
2022/12/21 13:04:37;;;;;;;47.28;17.67;;;7.80;99.90;;;;;;5067884;28;20915;-73
2022/12/21 13:07:27;;;;;;;42.53;16.83;;;7.80;99.90;;;;;;5074049;28;20197;-72
2022/12/21 13:10:07;;;;;;;45.97;16.77;;;7.80;99.90;;;;;;5054865;28;20131;-72
2022/12/21 13:12:51;;;;;;;47.92;20.10;;;7.80;99.90;;;;;;5056589;28;20170;-73
2022/12/21 13:15:41;;;;;;;49.50;20.52;;;7.90;99.90;;;;;;5053727;28;20049;-73
2022/12/21 13:18:15;;;;;;;42.80;18.77;;;7.80;99.90;;;;;;5046781;28;20041;-72
2022/12/21 13:20:44;;;;;;;46.22;19.20;;;7.80;99.90;;;;;;5032747;28;20052;-72